Station: Busselton Airport  

  Atmospheric Gas Attenuation - ITU Rec 676-11   ----------------- dB/100km -----------------
Date Time Temp RH % AH g/m3 Dew Point Wind Direction Speed kph Gust kph Barometer mB Rainfall Since 9am 24GHz 47GHz 76GHz 122GHz 134GHz 241GHz
07/05 20:20 12.3 72 7.82 7.4 11 11 1029.9 0 18.0 25.7 38.1 99.7 91.2 313.0
07/05 20:10 13.1 71 8.1 8 11 13 1029.9 0 18.5 25.9 38.9 101.7 94.0 322.8
07/05 20:00 13.2 70 8.04 7.9 13 13 1029.8 0 18.4 25.8 38.6 100.9 93.1 319.5
07/05 19:50 13.6 68 8 7.8 13 13 1029.8 0 18.3 25.6 38.2 100.0 92.1 316.1
07/05 19:40 14.1 66 8.01 7.9 11 13 1029.8 0 18.3 25.5 38.0 99.5 91.6 314.6
07/05 19:30 14.4 66 8.16 8.1 11 15 1029.8 0 18.6 25.6 38.5 100.7 93.2 320.2
07/05 19:20 13.8 68 8.1 8 13 13 1029.7 0 18.5 25.7 38.5 100.8 93.1 319.9
07/05 19:10 13.6 69 8.12 8 13 13 1029.6 0 18.6 25.8 38.7 101.3 93.6 321.6
07/05 19:00 13.8 68 8.1 8 15 17 1029.5 0 18.5 25.7 38.5 100.8 93.1 319.8
07/05 18:50 13.8 68 8.1 8 15 15 1029.4 0 18.5 25.7 38.5 100.8 93.1 319.8
07/05 18:40 14.1 67 8.13 8.1 13 15 1029.4 0 18.6 25.7 38.5 100.7 93.1 319.9
07/05 18:30 14.9 65 8.28 8.4 13 17 1029.1 0 18.8 25.7 38.7 101.3 94.1 323.5
07/05 18:20 14.9 65 8.28 8.4 15 17 1029.1 0 18.8 25.7 38.7 101.3 94.1 323.5
07/05 18:10 15.2 64 8.31 8.4 15 17 1029.1 0 18.9 25.6 38.7 101.2 94.1 323.6
07/05 18:00 15.2 64 8.31 8.4 15 17 1029 0 18.9 25.6 38.7 101.2 94.1 323.6
07/05 17:50 15.5 63 8.33 8.5 15 17 1029.1 0 18.9 25.6 38.6 101.0 94.0 323.3
07/05 17:40 15.8 62 8.35 8.5 15 15 1029.1 0 18.9 25.5 38.5 100.8 93.9 323.0
07/05 17:30 16.6 59 8.33 8.6 15 17 1028.9 0 18.9 25.2 38.1 99.6 92.7 318.8
07/05 17:20 17.1 59 8.59 9 13 15 1029.1 0 19.4 25.5 38.8 101.7 95.4 328.4
07/05 17:10 17.7 58 8.75 9.3 13 15 1029 0 19.7 25.6 39.2 102.6 96.7 333.0
07/05 17:00 18.1 57 8.81 9.5 13 17 1029 0 19.8 25.6 39.2 102.7 97.0 334.0
07/05 16:50 18.7 55 8.8 9.5 15 17 1029.1 0 19.8 25.4 38.9 101.8 96.2 331.1
07/05 16:40 19.4 53 8.84 9.6 15 17 1029.2 0 19.8 25.3 38.7 101.3 95.8 330.0
07/05 16:30 19.6 52 8.78 9.5 17 20 1029.1 0 19.7 25.1 38.4 100.5 94.8 326.5
07/05 16:20 19.9 52 8.93 9.8 15 20 1029.2 0 20.0 25.3 38.8 101.6 96.3 331.9
07/05 16:10 20 52 8.99 9.9 19 20 1029.3 0 20.1 25.3 39.0 102.1 97.0 334.1
07/05 16:00 20.4 50 8.84 9.6 17 22 1029.2 0 19.8 25.0 38.2 100.1 94.6 325.9
07/05 15:50 20.4 49 8.67 9.3 15 17 1029.3 0 19.4 24.7 37.6 98.4 92.5 318.6
07/05 15:40 20.7 49 8.82 9.6 19 24 1029.3 0 19.7 24.9 38.0 99.5 94.0 323.9
07/05 15:30 20.8 48 8.69 9.4 22 30 1029.3 0 19.4 24.7 37.5 98.1 92.3 317.9
07/05 15:20 20.9 49 8.92 9.8 15 24 1029.4 0 19.9 25.0 38.3 100.3 95.0 327.4
07/05 15:10 20.6 47 8.41 8.9 15 17 1029.5 0 18.8 24.3 36.5 95.6 89.2 306.8
07/05 15:00 21.1 48 8.84 9.7 20 26 1029.5 0 19.7 24.8 37.9 99.3 93.8 323.2
07/05 14:50 21 49 8.98 9.9 13 15 1029.5 0 20.0 25.0 38.5 100.8 95.6 329.6
07/05 14:40 20.9 47 8.56 9.2 15 17 1029.6 0 19.1 24.4 37.0 96.7 90.6 312.1
07/05 14:30 20.7 46 8.28 8.7 20 28 1029.7 0 18.6 24.1 36.0 94.2 87.5 301.0
07/05 14:20 21.1 47 8.66 9.4 24 30 1029.8 0 19.3 24.5 37.2 97.5 91.6 315.6
07/05 14:10 20.8 48 8.69 9.4 17 19 1029.9 0 19.4 24.7 37.5 98.2 92.4 318.1
07/05 14:00 20.8 48 8.69 9.4 15 22 1029.9 0 19.4 24.7 37.5 98.2 92.4 318.1
07/05 13:50 20.6 48 8.59 9.2 17 19 1030.1 0 19.2 24.6 37.2 97.4 91.4 314.6
07/05 13:40 20.6 50 8.95 9.8 17 19 1030.2 0 20.0 25.1 38.6 101.0 95.8 330.1
07/05 13:30 20.5 49 8.72 9.4 15 22 1030.3 0 19.5 24.8 37.8 98.9 93.1 320.6
07/05 13:20 20.4 51 9.02 9.9 15 19 1030.5 0 20.1 25.3 38.9 102.0 96.9 334.0
07/05 13:10 20.3 51 8.97 9.8 15 17 1030.6 0 20.0 25.3 38.8 101.7 96.5 332.3
07/05 13:00 19.9 52 8.93 9.8 15 24 1030.7 0 20.0 25.3 38.9 101.8 96.5 332.3
07/05 12:50 20 51 8.81 9.6 13 17 1030.8 0 19.7 25.1 38.4 100.4 94.8 326.7
07/05 12:40 20.1 50 8.69 9.4 19 20 1031 0 19.5 24.9 37.9 99.1 93.3 321.1
07/05 12:30 19.7 50 8.49 9 17 24 1031.1 0 19.1 24.7 37.3 97.6 91.3 314.1
07/05 12:20 20 51 8.81 9.6 20 22 1031.2 0 19.7 25.1 38.4 100.5 94.9 326.8
07/05 12:10 19.6 51 8.61 9.2 19 20 1031.4 0 19.3 24.9 37.8 99.0 92.9 319.8
07/05 12:00 19.5 53 8.89 9.7 19 28 1031.5 0 19.9 25.4 38.9 101.9 96.5 332.4
07/05 11:50 19.6 53 8.95 9.8 15 17 1031.7 0 20.0 25.5 39.1 102.4 97.1 334.7
07/05 11:40 19.1 54 8.85 9.6 22 24 1031.8 0 19.8 25.5 39.0 102.1 96.5 332.4
07/05 11:30 19.2 55 9.07 9.9 24 32 1032 0 20.3 25.8 39.8 104.2 99.2 341.7
07/05 11:20 19 54 8.8 9.5 22 26 1032.1 0 19.7 25.4 38.9 101.7 96.0 330.7
07/05 11:10 18.9 56 9.07 9.9 19 24 1032.3 0 20.3 25.9 39.9 104.6 99.6 343.1
07/05 11:00 18.8 57 9.18 10.1 22 30 1032.4 0 20.5 26.1 40.4 105.9 101.1 348.4
07/05 10:50 18.4 58 9.12 10 20 24 1032.5 0 20.4 26.1 40.4 105.8 100.9 347.5
07/05 10:40 18.1 59 9.12 10 20 24 1032.7 0 20.5 26.2 40.6 106.3 101.3 348.9
07/05 10:30 17.8 61 9.26 10.2 22 30 1032.8 0 20.8 26.5 41.3 108.1 103.5 356.6
07/05 10:20 17.5 62 9.24 10.1 20 24 1032.8 0 20.7 26.6 41.3 108.3 103.6 357.0
07/05 10:10 17.2 63 9.23 10.1 20 22 1032.9 0 20.7 26.6 41.5 108.6 103.9 358.0
07/05 10:00 17 67 9.69 10.8 20 28 1032.9 0 21.7 27.5 43.4 113.9 110.2 380.1
07/05 09:50 16.5 68 9.55 10.6 24 26 1032.8 0 21.4 27.4 43.1 113.0 109.1 376.0
07/05 09:40 15.7 69 9.23 10 24 30 1032.9 0 20.8 27.1 42.2 110.7 105.9 364.8
07/05 09:30 15.3 71 9.27 10.1 24 32 1033 0 20.9 27.3 42.6 111.7 107.0 368.6
07/05 09:20 15 73 9.36 10.2 20 24 1033 0 21.1 27.5 43.2 113.1 108.6 374.2
07/05 09:10 14.5 74 9.2 9.9 24 28 1033.1 0 20.8 27.4 42.8 112.1 107.2 369.1
07/05 09:00 14.3 77 9.46 10.3 22 28 1033.1 0 21.4 27.9 44.0 115.3 111.0 382.4
07/05 08:50 13.7 78 9.24 9.9 22 26 1033.2 0 20.9 27.7 43.4 113.7 108.8 374.8
07/05 08:40 13.4 80 9.3 10 19 20 1033.3 0 21.1 27.9 43.8 114.8 110.1 379.2
07/05 08:30 12.8 80 8.96 9.4 17 22 1033.3 0 20.4 27.6 42.7 111.9 106.3 365.6
07/05 08:20 12.5 82 9.02 9.5 19 20 1033.2 0 20.5 27.7 43.1 113.0 107.5 369.9
07/05 08:10 12.2 84 9.07 9.6 17 20 1033.1 0 20.7 27.9 43.5 114.0 108.6 373.7
07/05 08:00 11.8 84 8.84 9.2 17 22 1033.1 0 20.2 27.7 42.7 112.0 106.0 364.5
07/05 07:50 11.4 86 8.83 9.1 15 17 1033 0 20.2 27.8 42.9 112.4 106.4 365.8
07/05 07:40 11.1 87 8.76 9 17 20 1032.9 0 20.0 27.7 42.8 112.0 105.8 363.8
07/05 07:30 10.8 88 8.7 8.9 17 20 1032.9 0 19.9 27.7 42.7 111.8 105.4 362.2
07/05 07:20 10.3 90 8.62 8.7 13 17 1032.9 0 19.8 27.7 42.6 111.6 104.9 360.6
07/05 07:10 9.8 91 8.45 8.4 15 17 1032.7 0 19.4 27.6 42.1 110.4 103.2 354.5
07/05 07:00 9.5 92 8.38 8.3 15 19 1032.7 0 19.3 27.6 42.0 110.0 102.6 352.4
07/05 06:50 9.4 94 8.5 8.5 15 17 1032.7 0 19.6 27.8 42.6 111.5 104.4 358.8
07/05 06:40 9 96 8.47 8.4 15 17 1032.6 0 19.5 27.9 42.7 111.7 104.6 359.1
07/05 06:30 8.3 96 8.09 7.7 13 15 1032.6 0 18.7 27.4 41.4 108.3 100.1 343.4
07/05 06:20 8.4 97 8.23 8 11 11 1032.5 0 19.0 27.7 41.9 109.8 101.9 349.9
07/05 06:10 7.7 96 7.79 7.1 9 11 1032.5 0 18.1 27.1 40.4 105.7 96.6 331.1
07/05 06:00 7.8 96 7.84 7.2 9 11 1032.5 0 18.2 27.2 40.6 106.1 97.2 333.2
07/05 05:50 7.7 94 7.63 6.8 11 11 1032.5 0 17.8 26.8 39.7 103.9 94.4 323.3
07/05 05:40 8 95 7.86 7.2 11 13 1032.5 0 18.3 27.1 40.6 106.1 97.2 333.3
07/05 05:30 7.9 94 7.72 7 11 13 1032.4 0 18.0 26.9 40.0 104.6 95.4 326.8
07/05 05:20 7.7 93 7.54 6.6 13 13 1032.2 0 17.6 26.7 39.3 102.8 93.1 318.8
07/05 05:10 8.3 94 7.93 7.4 11 13 1032.1 0 18.4 27.1 40.7 106.4 97.8 335.4
07/05 05:00 8.5 94 8.03 7.6 11 13 1032.1 0 18.6 27.3 41.0 107.3 98.9 339.4
07/05 04:50 8.3 92 7.76 7.1 11 13 1032.1 0 18.0 26.9 40.0 104.5 95.4 327.0
07/05 04:40 8.6 90 7.74 7.1 13 13 1032.1 0 18.0 26.7 39.7 103.9 94.8 324.8
07/05 04:30 8.9 89 7.8 7.2 13 15 1032 0 18.1 26.7 39.8 104.1 95.2 326.4
07/05 04:20 9.3 88 7.91 7.4 13 15 1031.9 0 18.3 26.8 40.1 104.8 96.2 330.1
07/05 04:10 9.8 87 8.07 7.7 15 17 1031.9 0 18.6 26.9 40.5 106.0 97.8 335.7
07/05 04:00 10.2 88 8.38 8.3 15 17 1031.8 0 19.3 27.3 41.6 108.9 101.6 349.0
07/05 03:50 9.8 88 8.17 7.9 15 17 1031.7 0 18.8 27.1 40.9 107.1 99.2 340.5

Last Refresh: 07-May-2026 22:01:44

Bureau of Meteorology